Time;durP1;ratioP1;P1;durP2;ratioP2;P2;SDS_P1;SDS_P2;PMS_P1;PMS_P2;Temp;Humidity;BMP_temperature;BMP_pressure;BME280_temperature;BME280_humidity;BME280_pressure;Samples;Min_cycle;Max_cycle;Signal;HPM_P1;HPM_P2
2022/10/02 00:01:59;;;;;;;;;4.00;4.00;;;;;;;;5068974;27;45736;-69
2022/10/02 00:04:27;;;;;;;;;3.33;2.00;;;;;;;;5068741;28;46310;-72
2022/10/02 00:06:55;;;;;;;;;4.33;2.00;;;;;;;;5072023;27;45655;-71
2022/10/02 00:09:31;;;;;;;;;5.00;2.00;;;;;;;;5079152;27;45400;-70
2022/10/02 00:11:57;;;;;;;;;7.00;1.67;;;;;;;;5053022;28;46262;-70
2022/10/02 00:14:24;;;;;;;;;4.67;2.33;;;;;;;;5062533;27;47241;-70
2022/10/02 00:16:51;;;;;;;;;3.00;3.00;;;;;;;;5060867;27;45481;-72
2022/10/02 00:19:17;;;;;;;;;2.00;2.00;;;;;;;;5087773;27;45581;-71
2022/10/02 00:21:55;;;;;;;;;4.00;2.00;;;;;;;;5089572;27;45505;-71
2022/10/02 00:24:25;;;;;;;;;4.00;4.00;;;;;;;;5073269;27;46094;-70
2022/10/02 00:26:51;;;;;;;;;2.67;2.67;;;;;;;;5089118;27;45674;-70
2022/10/02 00:29:26;;;;;;;;;3.00;2.00;;;;;;;;5082886;27;45711;-71
2022/10/02 00:32:10;;;;;;;;;2.00;2.00;;;;;;;;5068148;28;46173;-70
2022/10/02 00:34:41;;;;;;;;;3.67;3.33;;;;;;;;5085794;27;46164;-69
2022/10/02 00:37:14;;;;;;;;;2.67;2.33;;;;;;;;5088529;27;45317;-71
2022/10/02 00:39:48;;;;;;;;;2.33;2.33;;;;;;;;5085659;27;45584;-72
2022/10/02 00:42:32;;;;;;;;;2.33;1.33;;;;;;;;5074239;27;46221;-71
2022/10/02 00:45:16;;;;;;;;;1.00;1.00;;;;;;;;5081548;27;45458;-72
2022/10/02 00:47:41;;;;;;;;;3.33;2.33;;;;;;;;5075600;27;45729;-74
2022/10/02 00:50:39;;;;;;;;;2.00;2.00;;;;;;;;5093692;27;45664;-71
2022/10/02 00:53:04;;;;;;;;;3.00;3.00;;;;;;;;5048378;27;45827;-73
2022/10/02 00:55:32;;;;;;;;;4.00;2.67;;;;;;;;5074593;27;45420;-69
2022/10/02 00:58:16;;;;;;;;;4.00;3.33;;;;;;;;5088810;27;45345;-72
2022/10/02 01:00:45;;;;;;;;;2.00;2.00;;;;;;;;5095078;27;45444;-71
2022/10/02 01:03:17;;;;;;;;;3.00;2.00;;;;;;;;5054958;28;45773;-70
2022/10/02 01:05:42;;;;;;;;;2.33;1.33;;;;;;;;5059790;27;46585;-70
2022/10/02 01:08:08;;;;;;;;;4.67;2.00;;;;;;;;5074443;27;45505;-71
2022/10/02 01:10:35;;;;;;;;;4.33;2.00;;;;;;;;5063538;27;45531;-71
2022/10/02 01:13:01;;;;;;;;;3.00;1.67;;;;;;;;5076404;27;45954;-70
2022/10/02 01:15:29;;;;;;;;;2.67;1.00;;;;;;;;5073160;27;47209;-69
2022/10/02 01:17:55;;;;;;;;;1.67;1.00;;;;;;;;5083249;27;45673;-69
2022/10/02 01:20:29;;;;;;;;;2.00;2.00;;;;;;;;5059531;27;45624;-70
2022/10/02 01:23:07;;;;;;;;;3.67;2.67;;;;;;;;5070012;27;45767;-69
2022/10/02 01:25:32;;;;;;;;;5.33;4.67;;;;;;;;5071864;27;46340;-70
2022/10/02 01:27:57;;;;;;;;;2.00;2.00;;;;;;;;5067832;27;45652;-70
2022/10/02 01:30:23;;;;;;;;;2.00;2.00;;;;;;;;5056981;27;45828;-71
2022/10/02 01:32:54;;;;;;;;;4.00;2.00;;;;;;;;5066866;27;46881;-72
2022/10/02 01:35:21;;;;;;;;;3.00;3.00;;;;;;;;5071860;27;45374;-75
2022/10/02 01:37:47;;;;;;;;;3.33;1.00;;;;;;;;5042602;28;45341;-74
2022/10/02 01:40:27;;;;;;;;;2.33;2.33;;;;;;;;5069012;28;45773;-75
2022/10/02 01:42:54;;;;;;;;;3.33;2.00;;;;;;;;5059555;28;45445;-75
2022/10/02 01:45:24;;;;;;;;;2.00;2.00;;;;;;;;5070709;28;46332;-74
2022/10/02 01:48:00;;;;;;;;;4.00;3.00;;;;;;;;5057275;28;45484;-75
2022/10/02 01:50:34;;;;;;;;;1.67;1.33;;;;;;;;5060825;28;45269;-75
2022/10/02 01:53:11;;;;;;;;;5.00;2.67;;;;;;;;5069180;28;45451;-74
2022/10/02 01:55:37;;;;;;;;;3.67;3.67;;;;;;;;5061030;28;45978;-74
2022/10/02 01:58:05;;;;;;;;;6.00;2.67;;;;;;;;5066921;28;45641;-74
2022/10/02 02:00:42;;;;;;;;;2.33;1.00;;;;;;;;5044878;28;46882;-73
2022/10/02 02:03:12;;;;;;;;;4.00;3.00;;;;;;;;5054173;28;45960;-73
2022/10/02 02:05:44;;;;;;;;;3.00;3.00;;;;;;;;5052489;28;45938;-73
2022/10/02 02:08:32;;;;;;;;;4.00;3.00;;;;;;;;5025244;28;45698;-74
2022/10/02 02:11:03;;;;;;;;;4.67;4.00;;;;;;;;5017916;28;45576;-71
2022/10/02 02:13:44;;;;;;;;;4.00;3.00;;;;;;;;5057848;28;45481;-70
2022/10/02 02:16:09;;;;;;;;;2.33;2.33;;;;;;;;5052269;28;45397;-70
2022/10/02 02:18:38;;;;;;;;;3.00;3.00;;;;;;;;5052305;28;45461;-70
2022/10/02 02:21:11;;;;;;;;;3.00;3.00;;;;;;;;5056818;28;45445;-70
2022/10/02 02:23:39;;;;;;;;;3.00;3.00;;;;;;;;5057899;28;45692;-71
2022/10/02 02:26:11;;;;;;;;;3.33;3.33;;;;;;;;5055875;28;46525;-70
2022/10/02 02:28:37;;;;;;;;;1.00;1.00;;;;;;;;5047866;28;45484;-73
2022/10/02 02:31:04;;;;;;;;;3.67;3.67;;;;;;;;5052556;28;45800;-69
2022/10/02 02:33:50;;;;;;;;;3.00;2.00;;;;;;;;5040356;28;45461;-68
2022/10/02 02:36:17;;;;;;;;;1.33;1.00;;;;;;;;5060345;28;45511;-70
2022/10/02 02:38:55;;;;;;;;;4.00;4.00;;;;;;;;5077087;27;45793;-70
2022/10/02 02:41:30;;;;;;;;;1.00;1.00;;;;;;;;5073006;27;45704;-71
2022/10/02 02:44:05;;;;;;;;;2.00;2.00;;;;;;;;5055657;27;45880;-70
2022/10/02 02:47:02;;;;;;;;;4.00;1.00;;;;;;;;5050840;27;46999;-70
2022/10/02 02:49:24;;;;;;;;;1.00;1.00;;;;;;;;5059894;27;45451;-71
2022/10/02 02:51:51;;;;;;;;;1.33;1.33;;;;;;;;5055243;27;45670;-69
2022/10/02 02:54:27;;;;;;;;;1.00;1.00;;;;;;;;5053110;27;45676;-70
2022/10/02 02:56:54;;;;;;;;;3.67;2.33;;;;;;;;5059955;27;46212;-70
2022/10/02 02:59:21;;;;;;;;;2.00;2.00;;;;;;;;5054412;27;45576;-70
2022/10/02 03:01:46;;;;;;;;;3.00;1.67;;;;;;;;5071224;27;45607;-68
2022/10/02 03:04:12;;;;;;;;;3.00;1.00;;;;;;;;5060271;27;45825;-69
2022/10/02 03:06:43;;;;;;;;;3.75;1.50;;;;;;;;5062878;27;47482;-70
2022/10/02 03:09:14;;;;;;;;;3.67;2.00;;;;;;;;5047470;28;45773;-70
2022/10/02 03:11:45;;;;;;;;;2.00;1.33;;;;;;;;5050636;28;45663;-70
2022/10/02 03:14:16;;;;;;;;;1.25;1.25;;;;;;;;5060985;27;45833;-69
2022/10/02 03:16:59;;;;;;;;;1.00;1.00;;;;;;;;5057933;27;45539;-69
2022/10/02 03:19:30;;;;;;;;;2.50;1.25;;;;;;;;5062493;27;45301;-70
2022/10/02 03:22:11;;;;;;;;;3.00;1.50;;;;;;;;5061619;27;45623;-69
2022/10/02 03:24:45;;;;;;;;;1.67;1.67;;;;;;;;5065203;27;45937;-70
2022/10/02 03:27:13;;;;;;;;;2.00;1.00;;;;;;;;5077277;27;45635;-69
2022/10/02 03:29:53;;;;;;;;;4.00;2.00;;;;;;;;5074228;27;45497;-67
2022/10/02 03:32:20;;;;;;;;;1.00;1.00;;;;;;;;5061563;28;45327;-69
2022/10/02 03:34:46;;;;;;;;;2.00;2.00;;;;;;;;5063254;27;45329;-68
2022/10/02 03:37:12;;;;;;;;;1.00;1.00;;;;;;;;5073091;27;45686;-68
2022/10/02 03:39:43;;;;;;;;;1.00;1.00;;;;;;;;5083420;27;45636;-68
2022/10/02 03:42:12;;;;;;;;;1.00;1.00;;;;;;;;5086978;27;45319;-68
2022/10/02 03:44:38;;;;;;;;;2.00;1.00;;;;;;;;5087745;27;45683;-69
2022/10/02 03:47:03;;;;;;;;;1.00;1.00;;;;;;;;5069158;27;47146;-68
2022/10/02 03:49:28;;;;;;;;;1.33;1.33;;;;;;;;5067423;27;45723;-69
2022/10/02 03:51:54;;;;;;;;;1.25;1.25;;;;;;;;5066184;27;45564;-68
2022/10/02 03:54:20;;;;;;;;;1.00;1.00;;;;;;;;5082991;27;45729;-69
2022/10/02 03:56:52;;;;;;;;;2.00;0.00;;;;;;;;5082350;27;45711;-70
2022/10/02 03:59:25;;;;;;;;;0.50;0.50;;;;;;;;5060003;27;45287;-69
2022/10/02 04:01:53;;;;;;;;;0.00;0.00;;;;;;;;5054456;27;45531;-68
2022/10/02 04:04:28;;;;;;;;;2.00;1.00;;;;;;;;5056080;28;46408;-68
2022/10/02 04:06:59;;;;;;;;;0.50;0.50;;;;;;;;5073420;27;46088;-68
2022/10/02 04:09:48;;;;;;;;;0.75;0.75;;;;;;;;5068553;27;45364;-70
2022/10/02 04:12:33;;;;;;;;;2.00;1.25;;;;;;;;5071337;27;45396;-69
2022/10/02 04:15:17;;;;;;;;;1.00;0.00;;;;;;;;5082181;27;45443;-69
2022/10/02 04:17:45;;;;;;;;;0.00;0.00;;;;;;;;5090359;27;46251;-68
2022/10/02 04:20:17;;;;;;;;;0.00;0.00;;;;;;;;5089882;27;45607;-70
2022/10/02 04:22:49;;;;;;;;;0.00;0.00;;;;;;;;5092839;27;45385;-69
2022/10/02 04:25:17;;;;;;;;;1.00;0.00;;;;;;;;5067171;28;45967;-70
2022/10/02 04:28:03;;;;;;;;;0.00;0.00;;;;;;;;5069281;27;46231;-70
2022/10/02 04:30:29;;;;;;;;;0.00;0.00;;;;;;;;5070501;27;45547;-70
2022/10/02 04:32:57;;;;;;;;;0.75;0.00;;;;;;;;5084341;27;45410;-70
2022/10/02 04:35:36;;;;;;;;;0.00;0.00;;;;;;;;5079501;27;45593;-71
2022/10/02 04:38:07;;;;;;;;;0.00;0.00;;;;;;;;5083621;27;45395;-68
2022/10/02 04:40:35;;;;;;;;;0.00;0.00;;;;;;;;5071401;27;45775;-70
2022/10/02 04:43:08;;;;;;;;;0.00;0.00;;;;;;;;5069670;27;45565;-70
2022/10/02 04:45:48;;;;;;;;;0.00;0.00;;;;;;;;5071064;27;45941;-70
2022/10/02 04:48:16;;;;;;;;;0.00;0.00;;;;;;;;5066829;27;45448;-69
2022/10/02 04:50:45;;;;;;;;;0.00;0.00;;;;;;;;5067069;27;45463;-70
2022/10/02 04:53:19;;;;;;;;;0.00;0.00;;;;;;;;5053331;28;45427;-70
2022/10/02 04:55:51;;;;;;;;;0.00;0.00;;;;;;;;5048580;27;45612;-70
2022/10/02 04:58:19;;;;;;;;;0.00;0.00;;;;;;;;5071779;27;45444;-71
2022/10/02 05:00:47;;;;;;;;;0.00;0.00;;;;;;;;5057957;27;45596;-71
2022/10/02 05:03:12;;;;;;;;;0.00;0.00;;;;;;;;5051995;28;45630;-70
2022/10/02 05:06:03;;;;;;;;;0.00;0.00;;;;;;;;5068764;27;46251;-69
2022/10/02 05:08:47;;;;;;;;;0.00;0.00;;;;;;;;5066666;27;45466;-69
2022/10/02 05:11:15;;;;;;;;;0.00;0.00;;;;;;;;5071840;27;45733;-70
2022/10/02 05:13:57;;;;;;;;;1.50;0.00;;;;;;;;5072764;27;45599;-72
2022/10/02 05:16:22;;;;;;;;;0.75;0.00;;;;;;;;5081606;27;45845;-69
2022/10/02 05:19:11;;;;;;;;;1.00;0.00;;;;;;;;5087994;27;45415;-71
2022/10/02 05:22:01;;;;;;;;;0.00;0.00;;;;;;;;5074357;27;45406;-71
2022/10/02 05:24:39;;;;;;;;;1.00;0.00;;;;;;;;5079782;27;45431;-69
2022/10/02 05:27:17;;;;;;;;;0.00;0.00;;;;;;;;5077835;27;45301;-71
2022/10/02 05:30:15;;;;;;;;;0.00;0.00;;;;;;;;5065695;27;46292;-71
2022/10/02 05:32:58;;;;;;;;;0.00;0.00;;;;;;;;5032422;28;45406;-71
2022/10/02 05:35:39;;;;;;;;;0.00;0.00;;;;;;;;5061629;27;45628;-71
2022/10/02 05:38:23;;;;;;;;;0.00;0.00;;;;;;;;5073111;27;45664;-68
2022/10/02 05:40:58;;;;;;;;;1.00;0.00;;;;;;;;5065805;27;45425;-72
2022/10/02 05:43:35;;;;;;;;;0.00;0.00;;;;;;;;5057314;28;45725;-69
2022/10/02 05:46:05;;;;;;;;;0.00;0.00;;;;;;;;5056802;27;45413;-71
2022/10/02 05:48:37;;;;;;;;;0.00;0.00;;;;;;;;5069318;27;45404;-71
2022/10/02 05:51:07;;;;;;;;;0.00;0.00;;;;;;;;5068489;27;46306;-72
2022/10/02 05:53:34;;;;;;;;;0.00;0.00;;;;;;;;5061946;27;45458;-72
2022/10/02 05:56:04;;;;;;;;;0.00;0.00;;;;;;;;5079915;27;45380;-73
2022/10/02 05:58:35;;;;;;;;;0.00;0.00;;;;;;;;5077910;27;45701;-75
2022/10/02 06:01:17;;;;;;;;;0.00;0.00;;;;;;;;5066096;27;45551;-77
2022/10/02 06:03:47;;;;;;;;;0.00;0.00;;;;;;;;5050957;28;45908;-75
2022/10/02 06:06:12;;;;;;;;;0.00;0.00;;;;;;;;5052285;28;45651;-74
2022/10/02 06:08:40;;;;;;;;;0.00;0.00;;;;;;;;5057715;27;45351;-74
2022/10/02 06:11:09;;;;;;;;;1.00;0.00;;;;;;;;5052802;28;47004;-77
2022/10/02 06:13:53;;;;;;;;;0.00;0.00;;;;;;;;5058167;27;45494;-74
2022/10/02 06:16:21;;;;;;;;;0.25;0.00;;;;;;;;5064330;27;45704;-76
2022/10/02 06:18:52;;;;;;;;;4.00;4.00;;;;;;;;5060913;27;45376;-76
2022/10/02 06:21:40;;;;;;;;;1.25;0.00;;;;;;;;5066246;27;46031;-76
2022/10/02 06:24:11;;;;;;;;;0.00;0.00;;;;;;;;5074305;27;45661;-76
2022/10/02 06:26:47;;;;;;;;;0.00;0.00;;;;;;;;5063035;27;45833;-76
2022/10/02 06:29:26;;;;;;;;;0.00;0.00;;;;;;;;5052141;28;45785;-72
2022/10/02 06:32:00;;;;;;;;;0.00;0.00;;;;;;;;5065697;27;45751;-73
2022/10/02 06:34:27;;;;;;;;;0.75;0.00;;;;;;;;5071791;27;45405;-73
2022/10/02 06:36:55;;;;;;;;;0.50;0.00;;;;;;;;5067766;27;45675;-73
2022/10/02 06:39:23;;;;;;;;;0.75;0.75;;;;;;;;5046836;28;46604;-71
2022/10/02 06:41:53;;;;;;;;;0.00;0.00;;;;;;;;5059518;27;45550;-71
2022/10/02 06:44:26;;;;;;;;;0.25;0.00;;;;;;;;5059755;27;45674;-71
2022/10/02 06:46:51;;;;;;;;;1.00;1.00;;;;;;;;5056397;27;45497;-72
2022/10/02 06:49:24;;;;;;;;;2.00;0.50;;;;;;;;5061271;27;45698;-73
2022/10/02 06:51:52;;;;;;;;;0.00;0.00;;;;;;;;5059295;27;46247;-75
2022/10/02 06:54:32;;;;;;;;;0.00;0.00;;;;;;;;5054517;27;45667;-73
2022/10/02 06:57:06;;;;;;;;;0.00;0.00;;;;;;;;5065497;27;46391;-76
2022/10/02 06:59:43;;;;;;;;;0.00;0.00;;;;;;;;5069322;27;45929;-73
2022/10/02 07:02:27;;;;;;;;;0.00;0.00;;;;;;;;5061319;28;46774;-74
2022/10/02 07:05:11;;;;;;;;;1.00;0.00;;;;;;;;5047546;28;45730;-74
2022/10/02 07:07:46;;;;;;;;;0.00;0.00;;;;;;;;5070950;27;45734;-74
2022/10/02 07:10:28;;;;;;;;;0.00;0.00;;;;;;;;5073347;27;45459;-75
2022/10/02 07:12:59;;;;;;;;;1.25;0.00;;;;;;;;5061073;27;45545;-73
2022/10/02 07:15:45;;;;;;;;;0.00;0.00;;;;;;;;5069282;27;45810;-74
2022/10/02 07:18:10;;;;;;;;;0.00;0.00;;;;;;;;5062088;27;45744;-73
2022/10/02 07:20:35;;;;;;;;;4.00;2.75;;;;;;;;5065829;27;45989;-75
2022/10/02 07:23:16;;;;;;;;;0.00;0.00;;;;;;;;5052674;28;46319;-75
2022/10/02 07:25:50;;;;;;;;;0.00;0.00;;;;;;;;5068018;27;45578;-75
2022/10/02 07:28:33;;;;;;;;;0.00;0.00;;;;;;;;5047356;27;45656;-73
2022/10/02 07:31:11;;;;;;;;;0.00;0.00;;;;;;;;5064269;27;45648;-75
2022/10/02 07:33:55;;;;;;;;;0.00;0.00;;;;;;;;5068083;27;45531;-76
2022/10/02 07:36:35;;;;;;;;;0.00;0.00;;;;;;;;5062633;27;45965;-75
2022/10/02 07:39:15;;;;;;;;;0.25;0.00;;;;;;;;5063948;27;45503;-74
2022/10/02 07:41:51;;;;;;;;;0.00;0.00;;;;;;;;5065832;27;45540;-76
2022/10/02 07:44:16;;;;;;;;;0.00;0.00;;;;;;;;5065031;27;46143;-73
2022/10/02 07:46:51;;;;;;;;;0.00;0.00;;;;;;;;5065753;27;45795;-73
2022/10/02 07:49:19;;;;;;;;;0.00;0.00;;;;;;;;5061541;27;45512;-74
2022/10/02 07:51:52;;;;;;;;;0.00;0.00;;;;;;;;5048457;28;45971;-75
2022/10/02 07:54:17;;;;;;;;;0.00;0.00;;;;;;;;5066237;27;45646;-74
2022/10/02 07:56:44;;;;;;;;;1.50;0.50;;;;;;;;5066183;27;45492;-68
2022/10/02 07:59:11;;;;;;;;;0.00;0.00;;;;;;;;5069009;27;45617;-68
2022/10/02 08:01:39;;;;;;;;;0.00;0.00;;;;;;;;5081636;27;45460;-67
2022/10/02 08:04:09;;;;;;;;;1.00;0.00;;;;;;;;5068597;27;46058;-69
2022/10/02 08:06:35;;;;;;;;;0.75;0.75;;;;;;;;5069114;27;45444;-69
2022/10/02 08:09:08;;;;;;;;;0.00;0.00;;;;;;;;5069671;27;46304;-70
2022/10/02 08:11:39;;;;;;;;;0.00;0.00;;;;;;;;5066602;27;45771;-69
2022/10/02 08:14:14;;;;;;;;;1.50;0.50;;;;;;;;5068489;27;45807;-69
2022/10/02 08:16:45;;;;;;;;;1.00;0.00;;;;;;;;5050730;28;45472;-68
2022/10/02 08:19:24;;;;;;;;;1.75;0.25;;;;;;;;5062525;27;45679;-67
2022/10/02 08:21:56;;;;;;;;;1.00;0.25;;;;;;;;5059842;27;45767;-67
2022/10/02 08:24:31;;;;;;;;;0.00;0.00;;;;;;;;5068599;28;45958;-69
2022/10/02 08:27:00;;;;;;;;;0.50;0.50;;;;;;;;5076333;27;45734;-69
2022/10/02 08:29:29;;;;;;;;;1.00;1.00;;;;;;;;5086722;27;45558;-68
2022/10/02 08:31:55;;;;;;;;;1.00;0.00;;;;;;;;5063183;27;45320;-68
2022/10/02 08:34:22;;;;;;;;;2.25;0.50;;;;;;;;5062726;27;45461;-68
2022/10/02 08:36:58;;;;;;;;;1.00;0.00;;;;;;;;5047241;28;46848;-67
2022/10/02 08:39:43;;;;;;;;;0.00;0.00;;;;;;;;5042385;27;45538;-68
2022/10/02 08:42:17;;;;;;;;;2.50;1.00;;;;;;;;5055375;28;46903;-68
2022/10/02 08:45:18;;;;;;;;;0.25;0.25;;;;;;;;5072102;28;46186;-67
2022/10/02 08:48:04;;;;;;;;;0.75;0.75;;;;;;;;5038882;28;45553;-68
2022/10/02 08:50:46;;;;;;;;;0.75;0.75;;;;;;;;5058494;27;45720;-68
2022/10/02 08:53:11;;;;;;;;;5.00;5.00;;;;;;;;5061137;28;45760;-68
2022/10/02 08:55:36;;;;;;;;;1.25;1.25;;;;;;;;5058854;27;46122;-67
2022/10/02 08:58:04;;;;;;;;;1.00;1.00;;;;;;;;5063710;27;45533;-70
2022/10/02 09:00:38;;;;;;;;;5.25;3.25;;;;;;;;5072117;27;45666;-69
2022/10/02 09:03:23;;;;;;;;;0.50;0.50;;;;;;;;5052930;27;46277;-70
2022/10/02 09:05:49;;;;;;;;;1.75;1.00;;;;;;;;5061479;27;45853;-70
2022/10/02 09:08:14;;;;;;;;;1.00;0.75;;;;;;;;5070559;27;45762;-71
2022/10/02 09:10:54;;;;;;;;;1.00;1.00;;;;;;;;5071943;27;46124;-69
2022/10/02 09:13:21;;;;;;;;;0.00;0.00;;;;;;;;5050971;27;45797;-68
2022/10/02 09:15:57;;;;;;;;;2.00;2.00;;;;;;;;5069671;27;45954;-68
2022/10/02 09:18:34;;;;;;;;;5.50;2.00;;;;;;;;5062467;27;45646;-69
2022/10/02 09:21:14;;;;;;;;;1.00;1.00;;;;;;;;5059626;27;46018;-69
2022/10/02 09:23:55;;;;;;;;;0.50;0.50;;;;;;;;5073426;27;45727;-70
2022/10/02 09:26:39;;;;;;;;;3.50;0.50;;;;;;;;5062445;27;47071;-71
2022/10/02 09:29:22;;;;;;;;;2.50;0.00;;;;;;;;5052192;28;45452;-70
2022/10/02 09:32:02;;;;;;;;;1.00;1.00;;;;;;;;5069355;27;45429;-69
2022/10/02 09:34:27;;;;;;;;;1.50;0.50;;;;;;;;5062575;27;45520;-68
2022/10/02 09:37:07;;;;;;;;;1.50;1.50;;;;;;;;5049482;27;48244;-72
2022/10/02 09:39:32;;;;;;;;;1.00;0.00;;;;;;;;5050675;27;46447;-71
2022/10/02 09:42:18;;;;;;;;;0.00;0.00;;;;;;;;5128680;22;45658;-78
2022/10/02 09:45:01;;;;;;;;;0.75;0.75;;;;;;;;5098299;27;45598;-78
2022/10/02 09:47:29;;;;;;;;;1.75;0.75;;;;;;;;5088714;27;46992;-81
2022/10/02 09:50:14;;;;;;;;;0.50;0.50;;;;;;;;5111318;27;45593;-85
2022/10/02 09:52:49;;;;;;;;;0.75;0.00;;;;;;;;5107321;27;45571;-81
2022/10/02 09:55:35;;;;;;;;;3.00;0.50;;;;;;;;5088575;27;45684;-81
2022/10/02 09:58:19;;;;;;;;;1.50;1.00;;;;;;;;5088543;27;46004;-81
2022/10/02 10:01:23;;;;;;;;;0.00;0.00;;;;;;;;5107198;27;45588;-82
2022/10/02 10:04:13;;;;;;;;;0.00;0.00;;;;;;;;5110484;27;45804;-82
2022/10/02 10:07:01;;;;;;;;;0.00;0.00;;;;;;;;5108027;27;45393;-83
2022/10/02 10:09:49;;;;;;;;;0.00;0.00;;;;;;;;5094596;27;45396;-83
2022/10/02 10:12:46;;;;;;;;;0.00;0.00;;;;;;;;5118029;27;45471;-82
2022/10/02 10:15:44;;;;;;;;;;;;;;;;;;;;;
2022/10/02 10:18:48;;;;;;;;;;;;;;;;;;;;;
2022/10/02 10:21:46;;;;;;;;;;;;;;;;;;;;;
2022/10/02 10:27:40;;;;;;;;;1.00;0.00;;;;;;;;5051751;28;45635;-90
2022/10/02 10:30:25;;;;;;;;;0.00;0.00;;;;;;;;5056103;28;45893;-89
2022/10/02 10:32:56;;;;;;;;;1.50;0.25;;;;;;;;5039224;28;46425;-87
2022/10/02 10:35:48;;;;;;;;;3.25;0.00;;;;;;;;5031789;28;46047;-85
2022/10/02 10:38:32;;;;;;;;;0.50;0.00;;;;;;;;5058074;28;45533;-90
2022/10/02 10:41:29;;;;;;;;;1.00;1.00;;;;;;;;5043238;28;45216;-81
2022/10/02 10:44:18;;;;;;;;;;;;;;;;;;;;;
2022/10/02 10:47:03;;;;;;;;;0.00;0.00;;;;;;;;5066633;28;72428;-87
2022/10/02 10:50:11;;;;;;;;;0.00;0.00;;;;;;;;5085834;27;45694;-88
2022/10/02 10:56:01;;;;;;;;;3.00;3.00;;;;;;;;5059710;28;45214;-91
2022/10/02 10:58:38;;;;;;;;;7.00;5.75;;;;;;;;5046995;28;45584;-85
2022/10/02 11:01:05;;;;;;;;;0.25;0.00;;;;;;;;5085955;22;44835;-80
2022/10/02 11:03:31;;;;;;;;;1.25;1.25;;;;;;;;5058046;28;46258;-78
2022/10/02 11:05:56;;;;;;;;;0.00;0.00;;;;;;;;5068421;27;45460;-77
2022/10/02 11:08:31;;;;;;;;;0.00;0.00;;;;;;;;5067610;28;45482;-70
2022/10/02 11:11:15;;;;;;;;;0.00;0.00;;;;;;;;5061141;27;45891;-72
2022/10/02 11:13:50;;;;;;;;;1.00;1.00;;;;;;;;5064114;27;46607;-72
2022/10/02 11:16:24;;;;;;;;;0.25;0.00;;;;;;;;5057986;28;45773;-69
2022/10/02 11:18:59;;;;;;;;;0.20;0.20;;;;;;;;5062884;27;46257;-72
2022/10/02 11:21:50;;;;;;;;;1.00;0.00;;;;;;;;5059029;27;45365;-70
2022/10/02 11:24:17;;;;;;;;;0.25;0.25;;;;;;;;5060388;28;45673;-70
2022/10/02 11:26:59;;;;;;;;;0.00;0.00;;;;;;;;5064864;27;45770;-72
2022/10/02 11:29:30;;;;;;;;;1.00;0.00;;;;;;;;5067929;28;45481;-70
2022/10/02 11:31:58;;;;;;;;;0.25;0.25;;;;;;;;5063586;27;45981;-74
2022/10/02 11:34:42;;;;;;;;;0.50;0.00;;;;;;;;5057575;28;46085;-73
2022/10/02 11:37:23;;;;;;;;;0.75;0.75;;;;;;;;5055260;28;45751;-71
2022/10/02 11:39:51;;;;;;;;;1.25;0.00;;;;;;;;5055943;28;45774;-70
2022/10/02 11:42:40;;;;;;;;;0.00;0.00;;;;;;;;5063080;27;45515;-71
2022/10/02 11:45:17;;;;;;;;;0.25;0.25;;;;;;;;5032362;28;45467;-70
2022/10/02 11:47:56;;;;;;;;;0.00;0.00;;;;;;;;5070774;28;48439;-70
2022/10/02 11:50:21;;;;;;;;;1.00;1.00;;;;;;;;5063283;28;45466;-71
2022/10/02 11:53:03;;;;;;;;;2.75;1.00;;;;;;;;5064161;27;45404;-73
2022/10/02 11:55:49;;;;;;;;;3.00;0.00;;;;;;;;5067316;28;45534;-71
2022/10/02 11:58:40;;;;;;;;;2.00;1.00;;;;;;;;5066939;27;45830;-74
2022/10/02 12:01:32;;;;;;;;;8.75;8.75;;;;;;;;5044333;27;45291;-72
2022/10/02 12:03:57;;;;;;;;;7.67;7.00;;;;;;;;5076042;27;45455;-72
2022/10/02 12:06:37;;;;;;;;;2.00;2.00;;;;;;;;5081169;27;45770;-71
2022/10/02 12:09:06;;;;;;;;;1.00;1.00;;;;;;;;5081439;27;46564;-71
2022/10/02 12:11:48;;;;;;;;;0.50;0.50;;;;;;;;5068109;27;45412;-71
2022/10/02 12:14:29;;;;;;;;;1.00;1.00;;;;;;;;5089164;27;45530;-70
2022/10/02 12:17:01;;;;;;;;;0.00;0.00;;;;;;;;5091945;27;45921;-71
2022/10/02 12:29:12;;;;;;;;;1.00;0.50;;;;;;;;5083145;27;45527;-72
2022/10/02 12:31:49;;;;;;;;;0.00;0.00;;;;;;;;5095487;27;46220;-70
2022/10/02 12:34:24;;;;;;;;;0.00;0.00;;;;;;;;5064032;27;45967;-71
2022/10/02 12:36:57;;;;;;;;;0.00;0.00;;;;;;;;5089783;27;45456;-72
2022/10/02 12:39:51;;;;;;;;;0.00;0.00;;;;;;;;5084872;27;45436;-72
2022/10/02 12:42:18;;;;;;;;;0.25;0.00;;;;;;;;5072087;27;46064;-72
2022/10/02 12:45:05;;;;;;;;;0.00;0.00;;;;;;;;5087484;27;45870;-72
2022/10/02 12:47:40;;;;;;;;;0.00;0.00;;;;;;;;5088505;27;45429;-72
2022/10/02 12:50:08;;;;;;;;;0.00;0.00;;;;;;;;5070024;27;45569;-72
2022/10/02 12:52:52;;;;;;;;;0.00;0.00;;;;;;;;5086661;27;47893;-71
2022/10/02 12:55:26;;;;;;;;;0.00;0.00;;;;;;;;5090503;27;45398;-73
2022/10/02 12:57:55;;;;;;;;;1.00;1.00;;;;;;;;5087730;27;45701;-71
2022/10/02 13:00:24;;;;;;;;;0.00;0.00;;;;;;;;5088330;27;46670;-75
2022/10/02 13:03:08;;;;;;;;;1.00;1.00;;;;;;;;5045374;28;47112;-72
2022/10/02 13:05:46;;;;;;;;;0.00;0.00;;;;;;;;5043455;28;45975;-73
2022/10/02 13:08:13;;;;;;;;;0.00;0.00;;;;;;;;5045675;28;45846;-73
2022/10/02 13:10:39;;;;;;;;;1.75;0.00;;;;;;;;5048466;28;45601;-73
2022/10/02 13:13:11;;;;;;;;;0.00;0.00;;;;;;;;5042308;28;46292;-74
2022/10/02 13:15:36;;;;;;;;;2.00;2.00;;;;;;;;5038747;28;45421;-74
2022/10/02 13:18:12;;;;;;;;;1.50;1.50;;;;;;;;5042116;28;45741;-75
2022/10/02 13:20:37;;;;;;;;;1.50;1.50;;;;;;;;5039672;28;45773;-75
2022/10/02 13:23:12;;;;;;;;;3.25;2.00;;;;;;;;5027863;28;46836;-75
2022/10/02 13:25:57;;;;;;;;;0.50;0.50;;;;;;;;5038849;28;45445;-77
2022/10/02 13:28:37;;;;;;;;;3.75;1.25;;;;;;;;5043810;28;45732;-75
2022/10/02 13:31:03;;;;;;;;;0.00;0.00;;;;;;;;5046915;28;45784;-75
2022/10/02 13:33:37;;;;;;;;;0.75;0.75;;;;;;;;5044963;28;46124;-75
2022/10/02 13:36:02;;;;;;;;;2.25;2.25;;;;;;;;5026121;28;45633;-75
2022/10/02 13:38:27;;;;;;;;;2.75;2.00;;;;;;;;5041001;28;45380;-76
2022/10/02 13:41:13;;;;;;;;;0.00;0.00;;;;;;;;5035723;28;45545;-79
2022/10/02 13:43:41;;;;;;;;;0.50;0.00;;;;;;;;5055474;28;46019;-81
2022/10/02 13:46:28;;;;;;;;;0.00;0.00;;;;;;;;5059548;28;45334;-79
2022/10/02 13:49:02;;;;;;;;;3.00;3.00;;;;;;;;5041333;28;45506;-79
2022/10/02 13:51:51;;;;;;;;;8.00;8.00;;;;;;;;5058390;28;45444;-80
2022/10/02 13:54:32;;;;;;;;;0.00;0.00;;;;;;;;5055150;28;45839;-79
2022/10/02 13:57:17;;;;;;;;;0.00;0.00;;;;;;;;5031495;28;45700;-78
2022/10/02 13:59:52;;;;;;;;;0.00;0.00;;;;;;;;5048539;28;45481;-80
2022/10/02 14:02:38;;;;;;;;;0.00;0.00;;;;;;;;5063946;27;45500;-79
2022/10/02 14:05:22;;;;;;;;;0.00;0.00;;;;;;;;5055546;28;47241;-76
2022/10/02 14:07:47;;;;;;;;;1.00;0.00;;;;;;;;5057159;28;45718;-78
2022/10/02 14:10:31;;;;;;;;;11.00;11.00;;;;;;;;5057487;28;45903;-77
2022/10/02 14:13:15;;;;;;;;;1.00;0.00;;;;;;;;5074099;27;45638;-76
2022/10/02 14:15:46;;;;;;;;;0.67;0.33;;;;;;;;5068047;27;45702;-75
2022/10/02 14:18:12;;;;;;;;;0.00;0.00;;;;;;;;5070019;28;45429;-75
2022/10/02 14:20:42;;;;;;;;;0.00;0.00;;;;;;;;5052496;28;45561;-75
2022/10/02 14:23:30;;;;;;;;;0.00;0.00;;;;;;;;5046785;27;45979;-74
2022/10/02 14:26:13;;;;;;;;;0.00;0.00;;;;;;;;5061433;28;45808;-77
2022/10/02 14:28:54;;;;;;;;;0.00;0.00;;;;;;;;5064420;28;45775;-75
2022/10/02 14:31:31;;;;;;;;;0.00;0.00;;;;;;;;5044631;28;45824;-75
2022/10/02 14:34:09;;;;;;;;;0.00;0.00;;;;;;;;5060026;28;45492;-77
2022/10/02 14:36:52;;;;;;;;;0.00;0.00;;;;;;;;5067406;28;45378;-76
2022/10/02 14:39:34;;;;;;;;;0.50;0.00;;;;;;;;5061958;27;45778;-75
2022/10/02 14:42:18;;;;;;;;;0.00;0.00;;;;;;;;5067390;28;45639;-75
2022/10/02 14:44:46;;;;;;;;;3.00;1.33;;;;;;;;5069833;28;45636;-76
2022/10/02 14:47:27;;;;;;;;;0.67;0.67;;;;;;;;5068510;27;45736;-76
2022/10/02 14:50:02;;;;;;;;;0.00;0.00;;;;;;;;5054777;28;45366;-76
2022/10/02 14:52:40;;;;;;;;;0.00;0.00;;;;;;;;5080356;27;45644;-73
2022/10/02 14:55:08;;;;;;;;;0.00;0.00;;;;;;;;5069213;27;45602;-76
2022/10/02 14:57:35;;;;;;;;;0.00;0.00;;;;;;;;5072467;27;46131;-75
2022/10/02 15:00:17;;;;;;;;;2.00;1.00;;;;;;;;5072721;27;45796;-73
2022/10/02 15:02:44;;;;;;;;;3.33;2.67;;;;;;;;5065112;27;46965;-75
2022/10/02 15:05:28;;;;;;;;;1.25;0.00;;;;;;;;5064821;27;45592;-75
2022/10/02 15:07:54;;;;;;;;;0.00;0.00;;;;;;;;5072192;27;45456;-74
2022/10/02 15:10:19;;;;;;;;;0.50;0.00;;;;;;;;5074473;27;45500;-76
2022/10/02 15:12:51;;;;;;;;;0.00;0.00;;;;;;;;5075606;27;45561;-76
2022/10/02 15:15:24;;;;;;;;;0.00;0.00;;;;;;;;5076865;27;45565;-72
2022/10/02 15:18:02;;;;;;;;;1.00;0.00;;;;;;;;5070201;28;46248;-73
2022/10/02 15:20:39;;;;;;;;;1.00;0.00;;;;;;;;5055932;27;45461;-75
2022/10/02 15:23:08;;;;;;;;;0.00;0.00;;;;;;;;5053892;28;45925;-74
2022/10/02 15:25:52;;;;;;;;;1.00;1.00;;;;;;;;5066644;27;45568;-72
2022/10/02 15:28:23;;;;;;;;;0.00;0.00;;;;;;;;5069079;27;45442;-71
2022/10/02 15:30:55;;;;;;;;;0.00;0.00;;;;;;;;5053102;28;45795;-71
2022/10/02 15:33:29;;;;;;;;;0.00;0.00;;;;;;;;5073743;27;45431;-74
2022/10/02 15:36:13;;;;;;;;;0.00;0.00;;;;;;;;5070952;27;45518;-73
2022/10/02 15:38:38;;;;;;;;;0.00;0.00;;;;;;;;5080184;27;45411;-73
2022/10/02 15:41:22;;;;;;;;;0.00;0.00;;;;;;;;5052240;28;45384;-75
2022/10/02 15:43:56;;;;;;;;;0.00;0.00;;;;;;;;5070689;27;45877;-73
2022/10/02 15:46:39;;;;;;;;;1.00;0.00;;;;;;;;5067993;27;45803;-74
2022/10/02 15:49:07;;;;;;;;;0.00;0.00;;;;;;;;5070390;27;45488;-71